sensor_id;sensor_type;location;lat;lon;timestamp;temperature;humidity
8487;DHT22;4280;50.534;8.708;2022-08-03T06:13:19;19.10;22.10
8487;DHT22;4280;50.534;8.708;2022-08-03T06:15:49;24.10;7.80
8487;DHT22;4280;50.534;8.708;2022-08-03T06:18:30;23.60;7.90
8487;DHT22;4280;50.534;8.708;2022-08-03T06:21:03;23.70;8.10
8487;DHT22;4280;50.534;8.708;2022-08-03T06:23:33;23.90;6.40
8487;DHT22;4280;50.534;8.708;2022-08-03T06:26:03;23.20;7.80
8487;DHT22;4280;50.534;8.708;2022-08-03T06:28:35;23.10;9.80
8487;DHT22;4280;50.534;8.708;2022-08-03T06:31:09;23.10;8.00
8487;DHT22;4280;50.534;8.708;2022-08-03T06:34:01;22.60;10.60
8487;DHT22;4280;50.534;8.708;2022-08-03T06:36:32;22.50;12.70
8487;DHT22;4280;50.534;8.708;2022-08-03T06:39:14;22.30;12.50
8487;DHT22;4280;50.534;8.708;2022-08-03T06:41:54;22.30;12.60
8487;DHT22;4280;50.534;8.708;2022-08-03T06:44:30;22.20;14.60
8487;DHT22;4280;50.534;8.708;2022-08-03T06:47:04;22.00;15.40
8487;DHT22;4280;50.534;8.708;2022-08-03T06:49:34;21.90;16.40
8487;DHT22;4280;50.534;8.708;2022-08-03T06:52:04;21.90;17.60
8487;DHT22;4280;50.534;8.708;2022-08-03T06:54:34;22.00;17.60
8487;DHT22;4280;50.534;8.708;2022-08-03T06:57:08;22.10;17.70
8487;DHT22;4280;50.534;8.708;2022-08-03T06:59:41;22.30;17.70
8487;DHT22;4280;50.534;8.708;2022-08-03T07:02:11;22.40;16.40
8487;DHT22;4280;50.534;8.708;2022-08-03T07:04:41;22.40;16.30
8487;DHT22;4280;50.534;8.708;2022-08-03T07:07:17;22.50;16.20
8487;DHT22;4280;50.534;8.708;2022-08-03T07:09:46;22.60;15.10
8487;DHT22;4280;50.534;8.708;2022-08-03T07:12:16;22.70;12.90
8487;DHT22;4280;50.534;8.708;2022-08-03T07:14:49;22.80;15.30
8487;DHT22;4280;50.534;8.708;2022-08-03T07:17:21;23.00;13.90
8487;DHT22;4280;50.534;8.708;2022-08-03T07:19:51;23.20;13.50
8487;DHT22;4280;50.534;8.708;2022-08-03T07:22:21;23.40;11.90
8487;DHT22;4280;50.534;8.708;2022-08-03T07:24:51;23.70;10.50
8487;DHT22;4280;50.534;8.708;2022-08-03T07:27:21;24.00;6.20
8487;DHT22;4280;50.534;8.708;2022-08-03T07:29:55;24.40;3.90
8487;DHT22;4280;50.534;8.708;2022-08-03T07:32:25;24.60;3.30
8487;DHT22;4280;50.534;8.708;2022-08-03T07:34:56;24.80;3.40
8487;DHT22;4280;50.534;8.708;2022-08-03T07:37:27;24.90;3.50
8487;DHT22;4280;50.534;8.708;2022-08-03T07:39:58;25.20;1.00
8487;DHT22;4280;50.534;8.708;2022-08-03T07:42:29;25.30;1.00
8487;DHT22;4280;50.534;8.708;2022-08-03T07:45:01;25.50;1.00
8487;DHT22;4280;50.534;8.708;2022-08-03T07:47:31;25.80;1.00
8487;DHT22;4280;50.534;8.708;2022-08-03T07:50:03;25.90;1.00
8487;DHT22;4280;50.534;8.708;2022-08-03T07:52:34;26.10;1.00
8487;DHT22;4280;50.534;8.708;2022-08-03T07:55:18;26.20;1.00
8487;DHT22;4280;50.534;8.708;2022-08-03T07:57:58;26.40;1.00
8487;DHT22;4280;50.534;8.708;2022-08-03T08:00:34;26.50;1.00
8487;DHT22;4280;50.534;8.708;2022-08-03T08:03:04;26.50;1.00
8487;DHT22;4280;50.534;8.708;2022-08-03T08:05:34;26.70;1.00
8487;DHT22;4280;50.534;8.708;2022-08-03T08:08:04;26.70;1.00
8487;DHT22;4280;50.534;8.708;2022-08-03T08:10:34;26.80;1.00
8487;DHT22;4280;50.534;8.708;2022-08-03T08:13:04;26.90;1.00
8487;DHT22;4280;50.534;8.708;2022-08-03T08:15:37;27.00;1.00
8487;DHT22;4280;50.534;8.708;2022-08-03T08:18:07;27.30;1.00
8487;DHT22;4280;50.534;8.708;2022-08-03T08:20:37;27.40;1.00
8487;DHT22;4280;50.534;8.708;2022-08-03T08:23:07;27.50;1.00
8487;DHT22;4280;50.534;8.708;2022-08-03T08:25:37;27.70;1.00
8487;DHT22;4280;50.534;8.708;2022-08-03T08:28:07;27.80;1.00
8487;DHT22;4280;50.534;8.708;2022-08-03T08:30:39;27.90;1.00
8487;DHT22;4280;50.534;8.708;2022-08-03T08:33:09;28.00;1.00
8487;DHT22;4280;50.534;8.708;2022-08-03T08:35:41;28.10;1.00
8487;DHT22;4280;50.534;8.708;2022-08-03T08:38:12;28.10;1.00
8487;DHT22;4280;50.534;8.708;2022-08-03T08:40:42;28.20;1.00
8487;DHT22;4280;50.534;8.708;2022-08-03T08:43:12;28.40;1.00
8487;DHT22;4280;50.534;8.708;2022-08-03T08:45:44;28.40;1.00
8487;DHT22;4280;50.534;8.708;2022-08-03T08:48:16;28.60;1.00
8487;DHT22;4280;50.534;8.708;2022-08-03T08:50:47;28.80;1.00
8487;DHT22;4280;50.534;8.708;2022-08-03T08:53:17;28.90;1.00
8487;DHT22;4280;50.534;8.708;2022-08-03T08:55:48;29.00;1.00
8487;DHT22;4280;50.534;8.708;2022-08-03T08:58:18;29.00;1.00
8487;DHT22;4280;50.534;8.708;2022-08-03T09:00:53;29.10;1.00
8487;DHT22;4280;50.534;8.708;2022-08-03T09:03:23;29.30;1.00
8487;DHT22;4280;50.534;8.708;2022-08-03T09:05:53;29.30;1.00
8487;DHT22;4280;50.534;8.708;2022-08-03T09:08:23;29.20;1.00
8487;DHT22;4280;50.534;8.708;2022-08-03T09:10:53;29.40;1.00
8487;DHT22;4280;50.534;8.708;2022-08-03T09:13:30;29.40;1.00
8487;DHT22;4280;50.534;8.708;2022-08-03T09:16:10;29.40;1.00
8487;DHT22;4280;50.534;8.708;2022-08-03T09:18:45;29.40;1.00
8487;DHT22;4280;50.534;8.708;2022-08-03T09:21:20;29.50;1.00
8487;DHT22;4280;50.534;8.708;2022-08-03T09:23:59;29.70;1.00
8487;DHT22;4280;50.534;8.708;2022-08-03T09:26:33;29.90;1.00
8487;DHT22;4280;50.534;8.708;2022-08-03T09:29:04;30.10;1.00
8487;DHT22;4280;50.534;8.708;2022-08-03T09:31:43;30.00;1.00
8487;DHT22;4280;50.534;8.708;2022-08-03T09:34:15;30.00;1.00
8487;DHT22;4280;50.534;8.708;2022-08-03T09:36:46;30.10;1.00
8487;DHT22;4280;50.534;8.708;2022-08-03T09:39:18;30.20;1.00
8487;DHT22;4280;50.534;8.708;2022-08-03T09:42:02;30.30;1.00
8487;DHT22;4280;50.534;8.708;2022-08-03T09:44:33;30.40;1.00
8487;DHT22;4280;50.534;8.708;2022-08-03T09:47:06;30.40;1.00
8487;DHT22;4280;50.534;8.708;2022-08-03T09:49:37;30.40;1.00
8487;DHT22;4280;50.534;8.708;2022-08-03T09:52:13;30.40;1.00
8487;DHT22;4280;50.534;8.708;2022-08-03T09:54:51;30.40;1.00
8487;DHT22;4280;50.534;8.708;2022-08-03T09:57:21;30.30;1.00
8487;DHT22;4280;50.534;8.708;2022-08-03T10:00:02;30.40;1.00
8487;DHT22;4280;50.534;8.708;2022-08-03T10:02:42;30.30;1.00
8487;DHT22;4280;50.534;8.708;2022-08-03T10:05:13;30.40;1.00
8487;DHT22;4280;50.534;8.708;2022-08-03T10:07:44;30.70;1.00
8487;DHT22;4280;50.534;8.708;2022-08-03T10:10:15;30.80;1.00
8487;DHT22;4280;50.534;8.708;2022-08-03T10:12:46;30.90;1.00
8487;DHT22;4280;50.534;8.708;2022-08-03T10:15:16;30.90;1.00
8487;DHT22;4280;50.534;8.708;2022-08-03T10:17:49;31.00;1.00
8487;DHT22;4280;50.534;8.708;2022-08-03T10:20:19;30.90;1.00
8487;DHT22;4280;50.534;8.708;2022-08-03T10:22:49;30.70;1.00
8487;DHT22;4280;50.534;8.708;2022-08-03T10:25:19;30.40;1.00
8487;DHT22;4280;50.534;8.708;2022-08-03T10:27:49;30.40;1.00
8487;DHT22;4280;50.534;8.708;2022-08-03T10:30:20;30.70;1.00
8487;DHT22;4280;50.534;8.708;2022-08-03T10:32:54;30.80;1.00
8487;DHT22;4280;50.534;8.708;2022-08-03T10:35:25;31.00;1.00
8487;DHT22;4280;50.534;8.708;2022-08-03T10:37:57;31.10;1.00
8487;DHT22;4280;50.534;8.708;2022-08-03T10:40:29;30.90;1.00
8487;DHT22;4280;50.534;8.708;2022-08-03T10:43:19;31.00;1.00
8487;DHT22;4280;50.534;8.708;2022-08-03T10:45:51;31.10;1.00
8487;DHT22;4280;50.534;8.708;2022-08-03T10:48:24;31.30;1.00
8487;DHT22;4280;50.534;8.708;2022-08-03T10:50:54;31.40;1.00
8487;DHT22;4280;50.534;8.708;2022-08-03T10:53:35;31.60;1.00
8487;DHT22;4280;50.534;8.708;2022-08-03T10:56:06;31.30;1.00
8487;DHT22;4280;50.534;8.708;2022-08-03T11:05:29;31.10;1.00
8487;DHT22;4280;50.534;8.708;2022-08-03T11:10:59;31.70;1.00
8487;DHT22;4280;50.534;8.708;2022-08-03T11:13:30;31.90;1.00
8487;DHT22;4280;50.534;8.708;2022-08-03T11:16:01;31.70;1.00
8487;DHT22;4280;50.534;8.708;2022-08-03T11:18:34;31.40;1.00
8487;DHT22;4280;50.534;8.708;2022-08-03T11:21:06;31.20;1.00
8487;DHT22;4280;50.534;8.708;2022-08-03T11:23:40;31.20;1.00
8487;DHT22;4280;50.534;8.708;2022-08-03T11:26:12;31.30;1.00
8487;DHT22;4280;50.534;8.708;2022-08-03T11:28:48;31.40;1.00
8487;DHT22;4280;50.534;8.708;2022-08-03T11:34:24;31.50;1.00
8487;DHT22;4280;50.534;8.708;2022-08-03T11:39:54;31.60;1.00
8487;DHT22;4280;50.534;8.708;2022-08-03T11:45:13;31.70;1.00
8487;DHT22;4280;50.534;8.708;2022-08-03T11:47:45;31.90;1.00
8487;DHT22;4280;50.534;8.708;2022-08-03T11:50:17;31.90;1.00
8487;DHT22;4280;50.534;8.708;2022-08-03T11:52:50;31.90;1.00
8487;DHT22;4280;50.534;8.708;2022-08-03T11:55:20;31.80;1.00
8487;DHT22;4280;50.534;8.708;2022-08-03T11:57:52;32.00;1.00
8487;DHT22;4280;50.534;8.708;2022-08-03T12:00:28;32.20;1.00
8487;DHT22;4280;50.534;8.708;2022-08-03T12:03:00;32.40;1.00
8487;DHT22;4280;50.534;8.708;2022-08-03T12:05:36;32.40;1.00
8487;DHT22;4280;50.534;8.708;2022-08-03T12:08:11;32.20;1.00
8487;DHT22;4280;50.534;8.708;2022-08-03T12:10:46;32.20;1.00
8487;DHT22;4280;50.534;8.708;2022-08-03T12:13:18;32.20;1.00
8487;DHT22;4280;50.534;8.708;2022-08-03T12:15:49;32.20;1.00
8487;DHT22;4280;50.534;8.708;2022-08-03T12:18:20;32.10;1.00
8487;DHT22;4280;50.534;8.708;2022-08-03T12:20:51;32.30;1.00
8487;DHT22;4280;50.534;8.708;2022-08-03T12:23:25;32.30;1.00
8487;DHT22;4280;50.534;8.708;2022-08-03T12:26:00;32.40;1.00
8487;DHT22;4280;50.534;8.708;2022-08-03T12:28:30;32.30;1.00
8487;DHT22;4280;50.534;8.708;2022-08-03T12:31:01;32.40;1.00
8487;DHT22;4280;50.534;8.708;2022-08-03T12:36:25;32.40;1.00
8487;DHT22;4280;50.534;8.708;2022-08-03T12:38:59;32.40;1.00
8487;DHT22;4280;50.534;8.708;2022-08-03T12:41:31;32.40;1.00
8487;DHT22;4280;50.534;8.708;2022-08-03T12:44:02;32.30;1.00
8487;DHT22;4280;50.534;8.708;2022-08-03T12:46:36;32.40;1.00
8487;DHT22;4280;50.534;8.708;2022-08-03T12:49:10;32.70;1.00
8487;DHT22;4280;50.534;8.708;2022-08-03T12:51:55;32.80;1.00
8487;DHT22;4280;50.534;8.708;2022-08-03T12:54:31;32.60;1.00
8487;DHT22;4280;50.534;8.708;2022-08-03T12:57:02;32.50;1.00
8487;DHT22;4280;50.534;8.708;2022-08-03T12:59:34;32.50;1.00
8487;DHT22;4280;50.534;8.708;2022-08-03T13:02:13;32.80;1.00
8487;DHT22;4280;50.534;8.708;2022-08-03T13:04:45;33.00;1.00
8487;DHT22;4280;50.534;8.708;2022-08-03T13:07:16;33.10;1.00
8487;DHT22;4280;50.534;8.708;2022-08-03T13:09:50;32.90;1.00
8487;DHT22;4280;50.534;8.708;2022-08-03T13:12:21;32.90;1.00
8487;DHT22;4280;50.534;8.708;2022-08-03T13:14:53;32.90;1.00
8487;DHT22;4280;50.534;8.708;2022-08-03T13:17:25;33.00;1.00
8487;DHT22;4280;50.534;8.708;2022-08-03T13:19:55;33.00;1.00
8487;DHT22;4280;50.534;8.708;2022-08-03T13:22:26;32.90;1.00
8487;DHT22;4280;50.534;8.708;2022-08-03T13:24:59;33.00;1.00
8487;DHT22;4280;50.534;8.708;2022-08-03T13:27:29;32.80;1.00
8487;DHT22;4280;50.534;8.708;2022-08-03T13:30:00;32.90;1.00
8487;DHT22;4280;50.534;8.708;2022-08-03T13:32:30;32.90;1.00
8487;DHT22;4280;50.534;8.708;2022-08-03T13:35:00;33.00;1.00
8487;DHT22;4280;50.534;8.708;2022-08-03T13:37:31;33.00;1.00
8487;DHT22;4280;50.534;8.708;2022-08-03T13:40:05;33.10;1.00
8487;DHT22;4280;50.534;8.708;2022-08-03T13:42:36;33.20;1.00
8487;DHT22;4280;50.534;8.708;2022-08-03T13:45:06;33.30;1.00
8487;DHT22;4280;50.534;8.708;2022-08-03T13:47:37;33.30;1.00
8487;DHT22;4280;50.534;8.708;2022-08-03T13:50:07;33.10;1.00
8487;DHT22;4280;50.534;8.708;2022-08-03T13:52:37;33.30;1.00
8487;DHT22;4280;50.534;8.708;2022-08-03T13:55:10;33.60;1.00
8487;DHT22;4280;50.534;8.708;2022-08-03T13:57:40;33.80;1.00
8487;DHT22;4280;50.534;8.708;2022-08-03T14:00:11;33.70;1.00
8487;DHT22;4280;50.534;8.708;2022-08-03T14:02:42;33.70;1.00
8487;DHT22;4280;50.534;8.708;2022-08-03T14:05:12;33.50;1.00
8487;DHT22;4280;50.534;8.708;2022-08-03T14:07:42;33.30;1.00
8487;DHT22;4280;50.534;8.708;2022-08-03T14:10:19;33.30;1.00
8487;DHT22;4280;50.534;8.708;2022-08-03T14:12:49;33.30;1.00
8487;DHT22;4280;50.534;8.708;2022-08-03T14:15:19;33.20;1.00
8487;DHT22;4280;50.534;8.708;2022-08-03T14:17:49;33.10;1.00
8487;DHT22;4280;50.534;8.708;2022-08-03T14:20:19;33.20;1.00
8487;DHT22;4280;50.534;8.708;2022-08-03T14:22:49;33.10;1.00
8487;DHT22;4280;50.534;8.708;2022-08-03T14:25:22;33.00;1.00
8487;DHT22;4280;50.534;8.708;2022-08-03T14:27:52;33.00;1.00
8487;DHT22;4280;50.534;8.708;2022-08-03T14:30:22;33.10;1.00
8487;DHT22;4280;50.534;8.708;2022-08-03T14:32:52;33.10;1.00
8487;DHT22;4280;50.534;8.708;2022-08-03T14:35:24;33.20;1.00
8487;DHT22;4280;50.534;8.708;2022-08-03T14:37:54;33.30;1.00
8487;DHT22;4280;50.534;8.708;2022-08-03T14:40:27;33.50;1.00
8487;DHT22;4280;50.534;8.708;2022-08-03T14:42:58;33.50;1.00
8487;DHT22;4280;50.534;8.708;2022-08-03T14:45:28;33.60;1.00
8487;DHT22;4280;50.534;8.708;2022-08-03T14:48:00;33.80;1.00
8487;DHT22;4280;50.534;8.708;2022-08-03T14:50:30;33.90;1.00
8487;DHT22;4280;50.534;8.708;2022-08-03T14:53:04;34.00;1.00
8487;DHT22;4280;50.534;8.708;2022-08-03T14:55:37;34.00;1.00
8487;DHT22;4280;50.534;8.708;2022-08-03T14:58:07;34.00;1.00
8487;DHT22;4280;50.534;8.708;2022-08-03T15:00:37;34.00;1.00
8487;DHT22;4280;50.534;8.708;2022-08-03T15:03:07;34.00;1.00
8487;DHT22;4280;50.534;8.708;2022-08-03T15:05:37;34.10;1.00
8487;DHT22;4280;50.534;8.708;2022-08-03T15:08:07;34.00;1.00
8487;DHT22;4280;50.534;8.708;2022-08-03T15:10:40;34.00;1.00
8487;DHT22;4280;50.534;8.708;2022-08-03T15:13:10;34.00;1.00
8487;DHT22;4280;50.534;8.708;2022-08-03T15:15:40;34.00;1.00
8487;DHT22;4280;50.534;8.708;2022-08-03T15:18:10;34.00;1.00
8487;DHT22;4280;50.534;8.708;2022-08-03T15:20:40;34.10;1.00
8487;DHT22;4280;50.534;8.708;2022-08-03T15:23:11;34.20;1.00
8487;DHT22;4280;50.534;8.708;2022-08-03T15:25:45;34.30;1.00
8487;DHT22;4280;50.534;8.708;2022-08-03T15:28:15;34.30;1.00
8487;DHT22;4280;50.534;8.708;2022-08-03T15:30:46;34.40;1.00
8487;DHT22;4280;50.534;8.708;2022-08-03T15:33:16;34.60;1.00
8487;DHT22;4280;50.534;8.708;2022-08-03T15:35:46;34.60;1.00
8487;DHT22;4280;50.534;8.708;2022-08-03T15:38:16;34.60;1.00
8487;DHT22;4280;50.534;8.708;2022-08-03T15:40:48;34.50;1.00
8487;DHT22;4280;50.534;8.708;2022-08-03T15:43:20;34.50;1.00
8487;DHT22;4280;50.534;8.708;2022-08-03T15:45:51;34.50;1.00
8487;DHT22;4280;50.534;8.708;2022-08-03T15:48:38;34.50;1.00
8487;DHT22;4280;50.534;8.708;2022-08-03T15:51:08;34.60;1.00
8487;DHT22;4280;50.534;8.708;2022-08-03T15:53:38;34.50;1.00
8487;DHT22;4280;50.534;8.708;2022-08-03T15:56:11;34.60;1.00
8487;DHT22;4280;50.534;8.708;2022-08-03T15:58:43;34.60;1.00
8487;DHT22;4280;50.534;8.708;2022-08-03T16:01:13;34.50;1.00
8487;DHT22;4280;50.534;8.708;2022-08-03T16:03:45;34.30;1.00
8487;DHT22;4280;50.534;8.708;2022-08-03T16:06:15;34.30;1.00
8487;DHT22;4280;50.534;8.708;2022-08-03T16:08:46;34.40;1.00
8487;DHT22;4280;50.534;8.708;2022-08-03T16:11:18;34.40;1.00
8487;DHT22;4280;50.534;8.708;2022-08-03T16:13:48;34.30;1.00
8487;DHT22;4280;50.534;8.708;2022-08-03T16:16:18;34.50;1.00
8487;DHT22;4280;50.534;8.708;2022-08-03T16:18:48;34.60;1.00
8487;DHT22;4280;50.534;8.708;2022-08-03T16:21:19;34.70;1.00
8487;DHT22;4280;50.534;8.708;2022-08-03T16:23:49;34.60;1.00
8487;DHT22;4280;50.534;8.708;2022-08-03T16:26:22;34.70;1.00
8487;DHT22;4280;50.534;8.708;2022-08-03T16:28:52;35.00;1.00
8487;DHT22;4280;50.534;8.708;2022-08-03T16:31:22;35.20;1.00
8487;DHT22;4280;50.534;8.708;2022-08-03T16:33:52;35.10;1.00
8487;DHT22;4280;50.534;8.708;2022-08-03T16:36:23;34.80;1.00
8487;DHT22;4280;50.534;8.708;2022-08-03T16:38:53;34.80;1.00
8487;DHT22;4280;50.534;8.708;2022-08-03T16:41:25;34.80;1.00
8487;DHT22;4280;50.534;8.708;2022-08-03T16:43:56;34.90;1.00
8487;DHT22;4280;50.534;8.708;2022-08-03T16:46:29;34.90;1.00
8487;DHT22;4280;50.534;8.708;2022-08-03T16:48:59;35.20;1.00
8487;DHT22;4280;50.534;8.708;2022-08-03T16:51:29;35.40;1.00
8487;DHT22;4280;50.534;8.708;2022-08-03T16:53:59;35.50;1.00
8487;DHT22;4280;50.534;8.708;2022-08-03T16:56:32;35.60;1.00
8487;DHT22;4280;50.534;8.708;2022-08-03T16:59:03;35.70;1.00
8487;DHT22;4280;50.534;8.708;2022-08-03T17:01:33;35.70;1.00
8487;DHT22;4280;50.534;8.708;2022-08-03T17:04:03;35.60;1.00
8487;DHT22;4280;50.534;8.708;2022-08-03T17:06:36;35.60;1.00
8487;DHT22;4280;50.534;8.708;2022-08-03T17:09:07;35.50;1.00
8487;DHT22;4280;50.534;8.708;2022-08-03T17:11:41;35.50;1.00
8487;DHT22;4280;50.534;8.708;2022-08-03T17:14:14;35.60;1.00
8487;DHT22;4280;50.534;8.708;2022-08-03T17:16:45;35.40;1.00
8487;DHT22;4280;50.534;8.708;2022-08-03T17:19:16;35.50;1.00
8487;DHT22;4280;50.534;8.708;2022-08-03T17:21:48;35.50;1.00
8487;DHT22;4280;50.534;8.708;2022-08-03T17:24:26;35.50;1.00
8487;DHT22;4280;50.534;8.708;2022-08-03T17:27:00;35.60;1.00
8487;DHT22;4280;50.534;8.708;2022-08-03T17:29:31;35.60;1.00
8487;DHT22;4280;50.534;8.708;2022-08-03T17:32:06;35.60;1.00
8487;DHT22;4280;50.534;8.708;2022-08-03T17:34:39;35.70;1.00
8487;DHT22;4280;50.534;8.708;2022-08-03T17:37:13;35.60;1.00
8487;DHT22;4280;50.534;8.708;2022-08-03T17:39:43;35.70;1.00
8487;DHT22;4280;50.534;8.708;2022-08-03T17:42:26;35.70;1.00
8487;DHT22;4280;50.534;8.708;2022-08-03T17:44:58;35.60;1.00
8487;DHT22;4280;50.534;8.708;2022-08-03T17:47:28;35.60;1.00
8487;DHT22;4280;50.534;8.708;2022-08-03T17:52:45;35.50;1.00
8487;DHT22;4280;50.534;8.708;2022-08-03T17:55:16;35.50;1.00
8487;DHT22;4280;50.534;8.708;2022-08-03T17:57:52;35.40;1.00
8487;DHT22;4280;50.534;8.708;2022-08-03T18:00:22;35.40;1.00
8487;DHT22;4280;50.534;8.708;2022-08-03T18:03:07;35.30;1.00
8487;DHT22;4280;50.534;8.708;2022-08-03T18:05:44;35.20;1.00
8487;DHT22;4280;50.534;8.708;2022-08-03T18:08:16;35.10;1.00
8487;DHT22;4280;50.534;8.708;2022-08-03T18:10:47;35.00;1.00
8487;DHT22;4280;50.534;8.708;2022-08-03T18:13:22;34.90;1.00
8487;DHT22;4280;50.534;8.708;2022-08-03T18:15:56;34.70;1.00
8487;DHT22;4280;50.534;8.708;2022-08-03T18:18:29;34.50;1.00
8487;DHT22;4280;50.534;8.708;2022-08-03T18:21:01;34.60;1.00
8487;DHT22;4280;50.534;8.708;2022-08-03T18:23:32;34.70;1.00
8487;DHT22;4280;50.534;8.708;2022-08-03T18:26:03;34.40;1.00
8487;DHT22;4280;50.534;8.708;2022-08-03T18:28:38;34.30;1.00
8487;DHT22;4280;50.534;8.708;2022-08-03T18:31:08;34.10;1.00
8487;DHT22;4280;50.534;8.708;2022-08-03T18:33:39;34.00;1.00
8487;DHT22;4280;50.534;8.708;2022-08-03T18:36:11;33.80;1.00
8487;DHT22;4280;50.534;8.708;2022-08-03T18:38:44;33.40;1.00
8487;DHT22;4280;50.534;8.708;2022-08-03T18:41:16;32.80;1.00
8487;DHT22;4280;50.534;8.708;2022-08-03T18:43:54;32.40;1.00
8487;DHT22;4280;50.534;8.708;2022-08-03T18:46:28;31.90;1.00
8487;DHT22;4280;50.534;8.708;2022-08-03T18:49:06;31.50;1.00
8487;DHT22;4280;50.534;8.708;2022-08-03T18:51:39;31.10;1.00
8487;DHT22;4280;50.534;8.708;2022-08-03T18:54:17;30.70;1.00
8487;DHT22;4280;50.534;8.708;2022-08-03T18:56:50;30.40;1.00
8487;DHT22;4280;50.534;8.708;2022-08-03T18:59:25;30.20;1.00
8487;DHT22;4280;50.534;8.708;2022-08-03T19:01:57;29.90;1.00
8487;DHT22;4280;50.534;8.708;2022-08-03T19:04:32;29.70;1.00
8487;DHT22;4280;50.534;8.708;2022-08-03T19:07:04;29.40;1.00
8487;DHT22;4280;50.534;8.708;2022-08-03T19:09:36;29.20;1.00
8487;DHT22;4280;50.534;8.708;2022-08-03T19:12:14;29.10;1.00
8487;DHT22;4280;50.534;8.708;2022-08-03T19:14:49;28.90;1.00
8487;DHT22;4280;50.534;8.708;2022-08-03T19:17:21;28.70;1.00
8487;DHT22;4280;50.534;8.708;2022-08-03T19:19:54;28.60;1.00
8487;DHT22;4280;50.534;8.708;2022-08-03T19:22:26;28.40;1.00
8487;DHT22;4280;50.534;8.708;2022-08-03T19:24:56;28.30;1.00
8487;DHT22;4280;50.534;8.708;2022-08-03T19:27:28;28.20;1.00
8487;DHT22;4280;50.534;8.708;2022-08-03T19:30:02;28.00;1.00
8487;DHT22;4280;50.534;8.708;2022-08-03T19:32:40;27.90;1.00
8487;DHT22;4280;50.534;8.708;2022-08-03T19:35:11;27.70;1.00
8487;DHT22;4280;50.534;8.708;2022-08-03T19:37:41;27.60;1.00
8487;DHT22;4280;50.534;8.708;2022-08-03T19:40:12;27.40;1.00
8487;DHT22;4280;50.534;8.708;2022-08-03T19:42:43;27.30;1.00
8487;DHT22;4280;50.534;8.708;2022-08-03T19:45:20;27.10;1.00
8487;DHT22;4280;50.534;8.708;2022-08-03T19:47:52;27.10;1.00
8487;DHT22;4280;50.534;8.708;2022-08-03T19:50:25;27.10;1.00
8487;DHT22;4280;50.534;8.708;2022-08-03T19:52:59;27.10;1.00
8487;DHT22;4280;50.534;8.708;2022-08-03T19:55:33;27.10;1.00
8487;DHT22;4280;50.534;8.708;2022-08-03T19:58:04;27.10;1.00
8487;DHT22;4280;50.534;8.708;2022-08-03T20:00:38;27.00;1.00
8487;DHT22;4280;50.534;8.708;2022-08-03T20:03:08;26.80;1.00
8487;DHT22;4280;50.534;8.708;2022-08-03T20:05:38;26.70;1.00
8487;DHT22;4280;50.534;8.708;2022-08-03T20:08:08;26.60;1.00
8487;DHT22;4280;50.534;8.708;2022-08-03T20:10:38;26.40;1.00
8487;DHT22;4280;50.534;8.708;2022-08-03T20:13:08;26.20;1.00
8487;DHT22;4280;50.534;8.708;2022-08-03T20:15:41;26.00;1.00
8487;DHT22;4280;50.534;8.708;2022-08-03T20:18:11;25.90;1.00
8487;DHT22;4280;50.534;8.708;2022-08-03T20:20:41;25.80;1.00
8487;DHT22;4280;50.534;8.708;2022-08-03T20:23:13;25.80;1.00
8487;DHT22;4280;50.534;8.708;2022-08-03T20:25:46;25.70;1.00
8487;DHT22;4280;50.534;8.708;2022-08-03T20:28:20;25.60;1.00
8487;DHT22;4280;50.534;8.708;2022-08-03T20:30:55;25.50;1.00
8487;DHT22;4280;50.534;8.708;2022-08-03T20:33:25;25.50;1.00
8487;DHT22;4280;50.534;8.708;2022-08-03T20:35:55;25.30;1.00
8487;DHT22;4280;50.534;8.708;2022-08-03T20:38:25;25.40;1.00
8487;DHT22;4280;50.534;8.708;2022-08-03T20:40:55;25.30;1.00
8487;DHT22;4280;50.534;8.708;2022-08-03T20:43:25;25.20;1.00
8487;DHT22;4280;50.534;8.708;2022-08-03T20:45:57;25.10;1.00
8487;DHT22;4280;50.534;8.708;2022-08-03T20:48:27;25.00;1.00
8487;DHT22;4280;50.534;8.708;2022-08-03T20:50:58;24.90;1.00
8487;DHT22;4280;50.534;8.708;2022-08-03T20:53:28;24.90;1.00
8487;DHT22;4280;50.534;8.708;2022-08-03T20:55:59;24.80;1.00
8487;DHT22;4280;50.534;8.708;2022-08-03T20:58:30;24.70;1.00
8487;DHT22;4280;50.534;8.708;2022-08-03T21:01:03;24.70;1.00
8487;DHT22;4280;50.534;8.708;2022-08-03T21:03:33;24.70;1.00
8487;DHT22;4280;50.534;8.708;2022-08-03T21:06:03;24.50;1.00
8487;DHT22;4280;50.534;8.708;2022-08-03T21:08:36;24.40;1.00
8487;DHT22;4280;50.534;8.708;2022-08-03T21:11:09;24.30;1.00
8487;DHT22;4280;50.534;8.708;2022-08-03T21:13:42;24.20;1.00
8487;DHT22;4280;50.534;8.708;2022-08-03T21:16:16;24.20;1.00
8487;DHT22;4280;50.534;8.708;2022-08-03T21:18:53;24.00;1.00
8487;DHT22;4280;50.534;8.708;2022-08-03T21:21:25;23.90;1.00
8487;DHT22;4280;50.534;8.708;2022-08-03T21:23:55;23.90;1.00
8487;DHT22;4280;50.534;8.708;2022-08-03T21:26:30;23.80;1.00
8487;DHT22;4280;50.534;8.708;2022-08-03T21:29:01;23.80;1.00
8487;DHT22;4280;50.534;8.708;2022-08-03T21:31:36;23.90;1.00
8487;DHT22;4280;50.534;8.708;2022-08-03T21:34:08;23.80;1.00
8487;DHT22;4280;50.534;8.708;2022-08-03T21:36:38;23.80;1.00
8487;DHT22;4280;50.534;8.708;2022-08-03T21:39:08;23.80;1.00
8487;DHT22;4280;50.534;8.708;2022-08-03T21:41:39;23.60;1.00
8487;DHT22;4280;50.534;8.708;2022-08-03T21:44:09;23.50;1.00
8487;DHT22;4280;50.534;8.708;2022-08-03T21:46:42;23.40;1.00
8487;DHT22;4280;50.534;8.708;2022-08-03T21:49:12;23.20;2.30
8487;DHT22;4280;50.534;8.708;2022-08-03T21:51:42;23.20;2.30
8487;DHT22;4280;50.534;8.708;2022-08-03T21:54:13;23.10;2.30
8487;DHT22;4280;50.534;8.708;2022-08-03T21:56:44;23.10;2.20
8487;DHT22;4280;50.534;8.708;2022-08-03T21:59:16;23.00;2.20
8487;DHT22;4280;50.534;8.708;2022-08-03T22:01:50;23.00;2.20
8487;DHT22;4280;50.534;8.708;2022-08-03T22:04:21;23.00;2.20
8487;DHT22;4280;50.534;8.708;2022-08-03T22:06:51;23.00;2.20
8487;DHT22;4280;50.534;8.708;2022-08-03T22:09:21;22.90;2.10
8487;DHT22;4280;50.534;8.708;2022-08-03T22:11:51;22.90;2.10
8487;DHT22;4280;50.534;8.708;2022-08-03T22:14:22;22.90;2.10
8487;DHT22;4280;50.534;8.708;2022-08-03T22:16:54;22.80;2.10
8487;DHT22;4280;50.534;8.708;2022-08-03T22:19:24;22.70;2.90
8487;DHT22;4280;50.534;8.708;2022-08-03T22:21:54;22.50;4.90
8487;DHT22;4280;50.534;8.708;2022-08-03T22:24:24;22.40;5.10
8487;DHT22;4280;50.534;8.708;2022-08-03T22:26:55;22.30;6.80
8487;DHT22;4280;50.534;8.708;2022-08-03T22:29:38;22.20;7.10
8487;DHT22;4280;50.534;8.708;2022-08-03T22:32:13;22.20;7.10
8487;DHT22;4280;50.534;8.708;2022-08-03T22:34:43;22.20;7.10
8487;DHT22;4280;50.534;8.708;2022-08-03T22:37:15;22.20;7.10
8487;DHT22;4280;50.534;8.708;2022-08-03T22:39:46;22.20;7.10
8487;DHT22;4280;50.534;8.708;2022-08-03T22:42:16;22.10;7.10
8487;DHT22;4280;50.534;8.708;2022-08-03T22:44:48;22.10;7.00
8487;DHT22;4280;50.534;8.708;2022-08-03T22:47:21;22.10;7.00
8487;DHT22;4280;50.534;8.708;2022-08-03T22:49:51;22.20;7.10
8487;DHT22;4280;50.534;8.708;2022-08-03T22:52:22;22.30;7.20
8487;DHT22;4280;50.534;8.708;2022-08-03T22:54:54;22.40;5.90
8487;DHT22;4280;50.534;8.708;2022-08-03T22:57:25;22.50;6.10
8487;DHT22;4280;50.534;8.708;2022-08-03T22:59:55;22.50;5.60
8487;DHT22;4280;50.534;8.708;2022-08-03T23:02:27;22.50;5.80
8487;DHT22;4280;50.534;8.708;2022-08-03T23:04:59;22.40;6.10
8487;DHT22;4280;50.534;8.708;2022-08-03T23:07:33;22.30;7.20
8487;DHT22;4280;50.534;8.708;2022-08-03T23:10:05;22.10;8.50
8487;DHT22;4280;50.534;8.708;2022-08-03T23:12:37;21.90;9.50
8487;DHT22;4280;50.534;8.708;2022-08-03T23:15:09;21.80;9.30
8487;DHT22;4280;50.534;8.708;2022-08-03T23:17:44;21.90;8.40
8487;DHT22;4280;50.534;8.708;2022-08-03T23:20:19;22.00;8.40
8487;DHT22;4280;50.534;8.708;2022-08-03T23:22:51;22.00;8.50
8487;DHT22;4280;50.534;8.708;2022-08-03T23:25:23;22.00;8.80